createdAt,value
2019-01-29T00:00:52.606Z,94274.7
2019-01-29T00:01:55.045Z,94271.6
2019-01-29T00:02:57.461Z,94279.7
2019-01-29T00:03:59.895Z,94277.3
2019-01-29T00:05:02.042Z,94278.2
2019-01-29T00:06:04.188Z,94277.1
2019-01-29T00:07:06.604Z,94279.1
2019-01-29T00:08:09.034Z,94275.6
2019-01-29T00:09:11.193Z,94281.6
2019-01-29T00:10:13.312Z,94280.8
2019-01-29T00:11:15.735Z,94286.1
2019-01-29T00:12:18.163Z,94282.1
2019-01-29T00:13:20.587Z,94285.8
2019-01-29T00:14:23.017Z,94282.3
2019-01-29T00:15:25.155Z,94285.8
2019-01-29T00:16:27.595Z,94289.4
2019-01-29T00:17:29.755Z,94288.4
2019-01-29T00:18:31.891Z,94291.5
2019-01-29T00:19:34.338Z,94291.5
2019-01-29T00:20:36.509Z,94293.4
2019-01-29T00:21:38.384Z,94296.6
2019-01-29T00:22:40.265Z,94291.5
2019-01-29T00:23:42.333Z,94295.8
2019-01-29T00:24:44.773Z,94300.6
2019-01-29T00:25:47.203Z,94297.3
2019-01-29T00:26:49.635Z,94294.9
2019-01-29T00:27:51.781Z,94299.2
2019-01-29T00:28:53.376Z,94300.5
2019-01-29T00:29:55.507Z,94299.1
2019-01-29T00:30:57.383Z,94302.3
2019-01-29T00:31:59.510Z,94299.1
2019-01-29T00:33:01.671Z,94300.7
2019-01-29T00:34:04.095Z,94304.2
2019-01-29T00:35:06.514Z,94301.8
2019-01-29T00:36:08.673Z,94302.9
2019-01-29T00:37:10.805Z,94301.8
2019-01-29T00:38:13.230Z,94304.2
2019-01-29T00:39:15.653Z,94300
2019-01-29T00:40:18.073Z,94307.5
2019-01-29T00:41:20.495Z,94304.2
2019-01-29T00:42:22.918Z,94300.7
2019-01-29T00:43:25.355Z,94299.9
2019-01-29T00:44:27.505Z,94306.8
2019-01-29T00:45:29.365Z,94302.5
2019-01-29T00:46:31.523Z,94304.7
2019-01-29T00:47:33.947Z,94304.8
2019-01-29T00:48:36.395Z,94302.3
2019-01-29T00:49:38.823Z,94305.7
2019-01-29T00:50:40.745Z,94306.6
2019-01-29T00:51:43.159Z,94310.1
2019-01-29T00:52:45.585Z,94306.5
2019-01-29T00:53:48.026Z,94310.6
2019-01-29T00:54:50.495Z,94311.9
2019-01-29T00:55:52.925Z,94306.7
2019-01-29T00:56:55.355Z,94310.6
2019-01-29T00:57:57.519Z,94312
2019-01-29T00:58:59.944Z,94314.1
2019-01-29T01:00:02.083Z,94315.1
2019-01-29T01:01:03.673Z,94320
2019-01-29T01:02:06.106Z,94320
2019-01-29T01:03:08.540Z,94319.6
2019-01-29T01:04:10.689Z,94320.1
2019-01-29T01:05:12.833Z,94327.7
2019-01-29T01:06:15.267Z,94324.1
2019-01-29T01:07:17.724Z,94331.5
2019-01-29T01:08:20.158Z,94331.3
2019-01-29T01:09:22.036Z,94335
2019-01-29T01:10:24.466Z,94331.1
2019-01-29T01:11:26.889Z,94334
2019-01-29T01:12:29.316Z,94335.2
2019-01-29T01:13:31.784Z,94336.6
2019-01-29T01:14:34.201Z,94341.3
2019-01-29T01:15:36.623Z,94338.5
2019-01-29T01:16:39.045Z,94339.5
2019-01-29T01:17:41.487Z,94341
2019-01-29T01:18:43.909Z,94341.5
2019-01-29T01:19:46.335Z,94343
2019-01-29T01:20:48.751Z,94340.6
2019-01-29T01:21:50.905Z,94344
2019-01-29T01:22:53.326Z,94350.3
2019-01-29T01:23:55.752Z,94347.9
2019-01-29T01:24:57.941Z,94350
2019-01-29T01:26:00.110Z,94350.5
2019-01-29T01:27:01.999Z,94351.3
2019-01-29T01:28:04.413Z,94346.7
2019-01-29T01:29:06.574Z,94350.6
2019-01-29T01:30:08.712Z,94356.7
2019-01-29T01:31:11.140Z,94352.1
2019-01-29T01:32:13.275Z,94350.8
2019-01-29T01:33:15.443Z,94352.5
2019-01-29T01:34:17.055Z,94352.2
2019-01-29T01:35:19.211Z,94351.4
2019-01-29T01:36:21.635Z,94352.6
2019-01-29T01:37:23.796Z,94353.9
2019-01-29T01:38:26.221Z,94354.6
2019-01-29T01:39:28.373Z,94349.6
2019-01-29T01:40:30.533Z,94357.3
2019-01-29T01:41:32.694Z,94355
2019-01-29T01:42:34.836Z,94356.9
2019-01-29T01:43:36.955Z,94359.5
2019-01-29T01:44:39.125Z,94356.9
2019-01-29T01:45:41.005Z,94357.8
2019-01-29T01:46:43.151Z,94359.5
2019-01-29T01:47:45.024Z,94363.3
2019-01-29T01:48:47.453Z,94367.3
2019-01-29T01:49:49.879Z,94366.4
2019-01-29T01:50:51.751Z,94359.6
2019-01-29T01:51:54.188Z,94369
2019-01-29T01:54:01.322Z,94369.4
2019-01-29T01:55:03.455Z,94372.9
2019-01-29T01:56:05.601Z,94375
2019-01-29T01:57:08.024Z,94372.3
2019-01-29T01:58:09.897Z,94375.3
2019-01-29T01:59:12.331Z,94372.2
2019-01-29T02:00:14.771Z,94373.8
2019-01-29T02:01:16.929Z,94372.4
2019-01-29T02:02:19.111Z,94375
2019-01-29T02:03:21.263Z,94374
2019-01-29T02:04:23.693Z,94377.2
2019-01-29T02:05:26.133Z,94379.5
2019-01-29T02:06:28.278Z,94376.2
2019-01-29T02:07:30.421Z,94380.8
2019-01-29T02:08:32.838Z,94379.2
2019-01-29T02:09:34.986Z,94384.4
2019-01-29T02:10:37.132Z,94384
2019-01-29T02:11:38.993Z,94383.7
2019-01-29T02:12:40.892Z,94383.9
2019-01-29T02:13:43.331Z,94383.7
2019-01-29T02:14:45.182Z,94385.5
2019-01-29T02:15:47.615Z,94387
2019-01-29T02:16:50.030Z,94389.8
2019-01-29T02:17:52.473Z,94390
2019-01-29T02:18:54.901Z,94386.6
2019-01-29T02:19:57.317Z,94391.3
2019-01-29T02:20:59.457Z,94393.6
2019-01-29T02:22:01.603Z,94395.6
2019-01-29T02:24:08.713Z,94400.9
2019-01-29T02:25:10.863Z,94400.9
2019-01-29T02:26:13.293Z,94398.3
2019-01-29T02:27:15.723Z,94402.9
2019-01-29T02:28:18.157Z,94407.3
2019-01-29T02:29:20.291Z,94405.6
2019-01-29T02:30:22.454Z,94409
2019-01-29T02:31:24.890Z,94414
2019-01-29T02:32:27.053Z,94412.1
2019-01-29T02:33:28.941Z,94411.9
2019-01-29T02:34:31.095Z,94414.6
2019-01-29T02:35:33.510Z,94418.1
2019-01-29T02:36:35.663Z,94416.7
2019-01-29T02:37:38.084Z,94417
2019-01-29T02:38:40.505Z,94419.6
2019-01-29T02:39:42.939Z,94419.3
2019-01-29T02:40:45.090Z,94423.3
2019-01-29T02:41:47.515Z,94419.1
2019-01-29T02:42:49.949Z,94423.8
2019-01-29T02:43:52.379Z,94424.9
2019-01-29T02:44:54.594Z,94429.2
2019-01-29T02:45:57.009Z,94428.8
2019-01-29T02:46:59.182Z,94430.9
2019-01-29T02:48:01.604Z,94432.6
2019-01-29T02:49:04.036Z,94434.4
2019-01-29T02:50:06.459Z,94432.6
2019-01-29T02:51:08.609Z,94433
2019-01-29T02:52:11.034Z,94435.1
2019-01-29T02:54:18.429Z,94437.6
2019-01-29T02:55:20.596Z,94439.5
2019-01-29T02:56:23.029Z,94437.9
2019-01-29T02:57:25.453Z,94443
2019-01-29T02:58:27.886Z,94438.1
2019-01-29T02:59:29.765Z,94442.7
2019-01-29T03:00:32.184Z,94440.3
2019-01-29T03:01:34.327Z,94442.2
2019-01-29T03:02:36.468Z,94441.5
2019-01-29T03:03:38.906Z,94442.7
2019-01-29T03:04:41.067Z,94441.3
2019-01-29T03:05:42.945Z,94446.6
2019-01-29T03:06:45.073Z,94443.2
2019-01-29T03:07:47.510Z,94443.6
2019-01-29T03:08:49.932Z,94443.2
2019-01-29T03:09:52.083Z,94445.9
2019-01-29T03:10:54.233Z,94440.7
2019-01-29T03:11:56.377Z,94440.7
2019-01-29T03:12:58.809Z,94437.9
2019-01-29T03:14:01.234Z,94435.8
2019-01-29T03:15:03.397Z,94439.1
2019-01-29T03:16:05.267Z,94438.6
2019-01-29T03:17:07.403Z,94440
2019-01-29T03:18:09.826Z,94445.3
2019-01-29T03:19:11.989Z,94446.8
2019-01-29T03:20:14.137Z,94449.3
2019-01-29T03:21:16.621Z,94450.6
2019-01-29T03:22:19.046Z,94452.1
2019-01-29T03:24:26.454Z,94461.3
2019-01-29T03:25:28.343Z,94463.4
2019-01-29T03:26:29.944Z,94472.3
2019-01-29T03:27:32.361Z,94471.7
2019-01-29T03:28:34.506Z,94470.5
2019-01-29T03:29:36.935Z,94469.7
2019-01-29T03:30:39.082Z,94477.7
2019-01-29T03:31:41.351Z,94471.6
2019-01-29T03:32:43.528Z,94479.9
2019-01-29T03:33:45.954Z,94479.9
2019-01-29T03:34:48.376Z,94483
2019-01-29T03:35:50.545Z,94486.8
2019-01-29T03:36:52.706Z,94484.6
2019-01-29T03:37:54.875Z,94480.7
2019-01-29T03:38:57.020Z,94485.8
2019-01-29T03:39:59.172Z,94484.3
2019-01-29T03:41:01.325Z,94490.6
2019-01-29T03:42:03.457Z,94492.4
2019-01-29T03:43:05.325Z,94490.8
2019-01-29T03:44:07.501Z,94493.2
2019-01-29T03:45:09.355Z,94495.8
2019-01-29T03:46:11.222Z,94492
2019-01-29T03:47:13.653Z,94492.4
2019-01-29T03:48:16.079Z,94499.1
2019-01-29T03:49:18.503Z,94500.5
2019-01-29T03:50:20.928Z,94501
2019-01-29T03:51:23.110Z,94498.4
2019-01-29T03:52:25.012Z,94500.5
2019-01-29T03:53:37.459Z,94500.5
2019-01-29T03:54:33.581Z,94501.8
2019-01-29T03:55:36.008Z,94501.4
2019-01-29T03:56:38.216Z,94501.4
2019-01-29T03:57:40.642Z,94505.7
2019-01-29T03:58:43.097Z,94503.2
2019-01-29T03:59:45.522Z,94505.3
2019-01-29T04:00:47.693Z,94509.6
2019-01-29T04:01:49.858Z,94512.3
2019-01-29T04:02:52.022Z,94512.3
2019-01-29T04:03:54.424Z,94512.4
2019-01-29T04:04:56.565Z,94511
2019-01-29T04:05:58.987Z,94514.7
2019-01-29T04:07:01.414Z,94517.9
2019-01-29T04:08:03.839Z,94516.1
2019-01-29T04:09:05.976Z,94514.6
2019-01-29T04:10:08.113Z,94516.8
2019-01-29T04:11:10.534Z,94515.7
2019-01-29T04:12:12.677Z,94517.9
2019-01-29T04:13:14.547Z,94517.5
2019-01-29T04:14:16.715Z,94517.4
2019-01-29T04:15:18.875Z,94520.5
2019-01-29T04:16:21.031Z,94520.5
2019-01-29T04:17:23.176Z,94518.7
2019-01-29T04:18:25.600Z,94515.5
2019-01-29T04:19:27.484Z,94517.9
2019-01-29T04:20:29.376Z,94519.1
2019-01-29T04:21:31.276Z,94518.3
2019-01-29T04:22:33.433Z,94517.3
2019-01-29T04:23:35.858Z,94518
2019-01-29T04:24:38.283Z,94519.4
2019-01-29T04:25:40.724Z,94515.5
2019-01-29T04:26:42.855Z,94522
2019-01-29T04:27:44.475Z,94518.7
2019-01-29T04:28:46.901Z,94519.6
2019-01-29T04:29:48.763Z,94517.5
2019-01-29T04:30:51.187Z,94519.3
2019-01-29T04:31:53.621Z,94522
2019-01-29T04:32:56.580Z,94522
2019-01-29T04:33:59.062Z,94519.5
2019-01-29T04:35:01.612Z,94522.1
2019-01-29T04:36:04.071Z,94521.3
2019-01-29T04:37:06.226Z,94518.9
2019-01-29T04:38:08.672Z,94520.7
2019-01-29T04:39:11.101Z,94523
2019-01-29T04:40:13.526Z,94520.2
2019-01-29T04:41:15.979Z,94525.2
2019-01-29T04:42:17.872Z,94524.6
2019-01-29T04:43:20.016Z,94523.3
2019-01-29T04:44:22.479Z,94522.6
2019-01-29T04:45:24.642Z,94524
2019-01-29T04:46:26.807Z,94524.4
2019-01-29T04:47:29.234Z,94525.9
2019-01-29T04:48:31.660Z,94528.8
2019-01-29T04:49:33.902Z,94528.5
2019-01-29T04:50:36.077Z,94530.9
2019-01-29T04:51:38.234Z,94530
2019-01-29T04:52:40.373Z,94529.6
2019-01-29T04:53:42.524Z,94524.3
2019-01-29T04:54:44.379Z,94529.3
2019-01-29T04:55:46.260Z,94527
2019-01-29T04:56:48.677Z,94534.1
2019-01-29T04:57:50.823Z,94528.4
2019-01-29T04:58:52.982Z,94525.9
2019-01-29T04:59:55.141Z,94530.3
2019-01-29T05:00:57.564Z,94526.2
2019-01-29T05:01:59.991Z,94527.5
2019-01-29T05:03:02.159Z,94526.8
2019-01-29T05:04:04.310Z,94528.7
2019-01-29T05:05:06.455Z,94533.8
2019-01-29T05:06:08.887Z,94528.5
2019-01-29T05:07:11.032Z,94533.5
2019-01-29T05:08:13.264Z,94533.8
2019-01-29T05:09:15.680Z,94534.6
2019-01-29T05:10:18.105Z,94537.7
2019-01-29T05:11:20.553Z,94531.2
2019-01-29T05:12:22.982Z,94533.2
2019-01-29T05:13:25.590Z,94534.3
2019-01-29T05:14:28.011Z,94537.1
2019-01-29T05:15:29.890Z,94532
2019-01-29T05:16:32.322Z,94532.5
2019-01-29T05:17:34.467Z,94535.4
2019-01-29T05:18:36.892Z,94536.4
2019-01-29T05:19:39.044Z,94538.5
2019-01-29T05:20:41.461Z,94539.4
2019-01-29T05:21:43.354Z,94536.2
2019-01-29T05:22:45.514Z,94535.1
2019-01-29T05:23:47.962Z,94538
2019-01-29T05:24:50.126Z,94534.2
2019-01-29T05:25:52.548Z,94538.2
2019-01-29T05:26:54.991Z,94539.8
2019-01-29T05:27:57.141Z,94540.8
2019-01-29T05:28:59.574Z,94540.6
2019-01-29T05:30:01.720Z,94541.9
2019-01-29T05:31:03.585Z,94540.9
2019-01-29T05:32:05.737Z,94547.1
2019-01-29T05:33:08.160Z,94546.1
2019-01-29T05:34:10.580Z,94546.6
2019-01-29T05:35:13.016Z,94546.8
2019-01-29T05:36:15.173Z,94549.9
2019-01-29T05:37:17.606Z,94548.2
2019-01-29T05:38:19.755Z,94548.5
2019-01-29T05:39:22.170Z,94552.1
2019-01-29T05:40:24.330Z,94551.3
2019-01-29T05:41:26.762Z,94552.2
2019-01-29T05:42:29.180Z,94553.1
2019-01-29T05:43:31.604Z,94552.9
2019-01-29T05:44:34.037Z,94556.1
2019-01-29T05:45:36.625Z,94557.3
2019-01-29T05:46:38.515Z,94563.7
2019-01-29T05:47:40.945Z,94557.6
2019-01-29T05:48:42.553Z,94562.7
2019-01-29T05:49:44.988Z,94565.6
2019-01-29T05:50:47.123Z,94559.9
2019-01-29T05:51:49.275Z,94570
2019-01-29T05:52:51.709Z,94564.2
2019-01-29T05:53:54.126Z,94570.6
2019-01-29T05:54:56.554Z,94568.4
2019-01-29T05:55:58.432Z,94568.3
2019-01-29T05:57:00.856Z,94569.7
2019-01-29T05:58:03.295Z,94573.6
2019-01-29T05:59:05.443Z,94568.9
2019-01-29T06:00:07.344Z,94572.7
2019-01-29T06:01:09.510Z,94575.2
2019-01-29T06:02:11.926Z,94575.2
2019-01-29T06:03:14.070Z,94576.2
2019-01-29T06:04:16.490Z,94577.7
2019-01-29T06:05:18.923Z,94579.2
2019-01-29T06:06:21.459Z,94579
2019-01-29T06:07:23.876Z,94578.8
2019-01-29T06:08:26.059Z,94584.3
2019-01-29T06:09:28.218Z,94579.5
2019-01-29T06:10:30.652Z,94581.1
2019-01-29T06:11:33.126Z,94577.4
2019-01-29T06:12:35.325Z,94579.4
2019-01-29T06:13:37.243Z,94584.8
2019-01-29T06:14:39.718Z,94580.8
2019-01-29T06:15:41.364Z,94580.5
2019-01-29T06:16:43.525Z,94585
2019-01-29T06:17:45.962Z,94588
2019-01-29T06:18:48.391Z,94586.6
2019-01-29T06:19:50.552Z,94584.1
2019-01-29T06:20:52.707Z,94587.3
2019-01-29T06:21:55.147Z,94587.7
2019-01-29T06:22:57.584Z,94589.8
2019-01-29T06:23:59.760Z,94587.7
2019-01-29T06:25:02.404Z,94590.4
2019-01-29T06:26:04.853Z,94589
2019-01-29T06:27:07.000Z,94593.1
2019-01-29T06:28:09.143Z,94594.3
2019-01-29T06:29:11.562Z,94592.6
2019-01-29T06:30:14.002Z,94592.7
2019-01-29T06:31:16.144Z,94593.6
2019-01-29T06:32:18.285Z,94598.9
2019-01-29T06:33:20.714Z,94598.7
2019-01-29T06:34:22.890Z,94597.9
2019-01-29T06:35:25.045Z,94599.1
2019-01-29T06:36:27.473Z,94601
2019-01-29T06:37:29.952Z,94606.6
2019-01-29T06:38:32.374Z,94607.2
2019-01-29T06:39:34.786Z,94606.3
2019-01-29T06:40:37.213Z,94605.2
2019-01-29T06:41:39.639Z,94606.9
2019-01-29T06:42:41.806Z,94605.9
2019-01-29T06:43:43.418Z,94611.4
2019-01-29T06:44:45.843Z,94613.1
2019-01-29T06:45:48.276Z,94613.9
2019-01-29T06:46:50.455Z,94611.5
2019-01-29T06:47:53.056Z,94612.6
2019-01-29T06:48:55.173Z,94610.7
2019-01-29T06:49:57.578Z,94612.8
2019-01-29T06:50:59.712Z,94612.9
2019-01-29T06:52:01.876Z,94616.1
2019-01-29T06:53:04.294Z,94614
2019-01-29T06:54:06.507Z,94614.6
2019-01-29T06:55:08.390Z,94615.1
2019-01-29T06:56:10.264Z,94620.1
2019-01-29T06:57:12.693Z,94619.9
2019-01-29T06:58:15.114Z,94623.3
2019-01-29T06:59:17.540Z,94617.7
2019-01-29T07:00:19.435Z,94617.4
2019-01-29T07:01:21.589Z,94621.7
2019-01-29T07:02:24.032Z,94620.3
2019-01-29T07:03:26.478Z,94618.6
2019-01-29T07:04:28.901Z,94623.8
2019-01-29T07:05:31.337Z,94626.2
2019-01-29T07:06:33.762Z,94628
2019-01-29T07:07:36.188Z,94627.3
2019-01-29T07:08:38.329Z,94626.5
2019-01-29T07:09:40.204Z,94627.1
2019-01-29T07:10:44.181Z,94625.7
2019-01-29T07:11:46.399Z,94625.2
2019-01-29T07:12:48.840Z,94626
2019-01-29T07:13:51.015Z,94626.7
2019-01-29T07:14:53.148Z,94629.7
2019-01-29T07:15:55.586Z,94631.6
2019-01-29T07:16:58.016Z,94633.3
2019-01-29T07:18:00.202Z,94634
2019-01-29T07:19:02.636Z,94634.1
2019-01-29T07:20:05.081Z,94632.9
2019-01-29T07:21:07.517Z,94631.2
2019-01-29T07:22:09.668Z,94634.9
2019-01-29T07:23:12.094Z,94637.1
2019-01-29T07:24:14.521Z,94635
2019-01-29T07:25:16.960Z,94637.6
2019-01-29T07:26:18.574Z,94638
2019-01-29T07:27:20.700Z,94640.2
2019-01-29T07:28:22.850Z,94644
2019-01-29T07:29:24.733Z,94646.6
2019-01-29T07:30:26.897Z,94648.7
2019-01-29T07:31:29.353Z,94648.4
2019-01-29T07:32:31.484Z,94646.2
2019-01-29T07:33:33.631Z,94648.4
2019-01-29T07:34:35.499Z,94651.7
2019-01-29T07:35:37.668Z,94649.2
2019-01-29T07:36:39.820Z,94654.7
2019-01-29T07:37:41.961Z,94655.4
2019-01-29T07:38:44.384Z,94655.5
2019-01-29T07:39:46.817Z,94657.7
2019-01-29T07:40:48.727Z,94661.1
2019-01-29T07:41:50.895Z,94662.2
2019-01-29T07:42:53.403Z,94663.6
2019-01-29T07:43:55.815Z,94665
2019-01-29T07:44:58.251Z,94668.2
2019-01-29T07:46:00.675Z,94666.2
2019-01-29T07:47:03.099Z,94665.1
2019-01-29T07:48:05.257Z,94664.9
2019-01-29T07:49:07.677Z,94665.7
2019-01-29T07:50:10.103Z,94666.2
2019-01-29T07:51:12.524Z,94661.3
2019-01-29T07:52:14.947Z,94663.6
2019-01-29T07:53:17.159Z,94662.1
2019-01-29T07:54:19.324Z,94665.1
2019-01-29T07:55:21.751Z,94669.1
2019-01-29T07:56:23.914Z,94666.8
2019-01-29T07:57:26.344Z,94670
2019-01-29T07:58:28.485Z,94672.2
2019-01-29T08:00:35.881Z,94667
2019-01-29T08:01:38.300Z,94668.6
2019-01-29T08:02:40.445Z,94666.8
2019-01-29T08:03:42.872Z,94666.4
2019-01-29T08:04:45.025Z,94665.3
2019-01-29T08:05:47.468Z,94665.5
2019-01-29T08:06:49.904Z,94666.6
2019-01-29T08:07:52.047Z,94666
2019-01-29T08:08:54.203Z,94667
2019-01-29T08:09:56.346Z,94668.2
2019-01-29T08:10:58.486Z,94671.2
2019-01-29T08:12:00.899Z,94668.3
2019-01-29T08:13:03.059Z,94666.5
2019-01-29T08:14:05.473Z,94668.3
2019-01-29T08:15:07.615Z,94670.5
2019-01-29T08:16:09.765Z,94670.2
2019-01-29T08:17:12.181Z,94669.8
2019-01-29T08:18:14.605Z,94668.3
2019-01-29T08:19:16.747Z,94669.8
2019-01-29T08:20:19.180Z,94668.1
2019-01-29T08:21:21.621Z,94670.5
2019-01-29T08:22:23.743Z,94672.1
2019-01-29T08:23:26.174Z,94670.1
2019-01-29T08:24:29.053Z,94669
2019-01-29T08:25:31.212Z,94669.9
2019-01-29T08:26:33.361Z,94674.5
2019-01-29T08:27:35.506Z,94675.5
2019-01-29T08:28:37.939Z,94677
2019-01-29T08:29:40.091Z,94678.8
2019-01-29T08:30:42.523Z,94677.7
2019-01-29T08:31:44.945Z,94681.6
2019-01-29T08:32:47.401Z,94680.3
2019-01-29T08:33:49.539Z,94682.1
2019-01-29T08:34:51.973Z,94680
2019-01-29T08:35:54.403Z,94683
2019-01-29T08:36:56.555Z,94685.7
2019-01-29T08:37:58.420Z,94680.8
2019-01-29T08:39:00.592Z,94679.2
2019-01-29T08:40:03.021Z,94686.6
2019-01-29T08:41:06.048Z,94683.3
2019-01-29T08:42:07.935Z,94683.7
2019-01-29T08:43:10.106Z,94685.9
2019-01-29T08:44:12.523Z,94687.3
2019-01-29T08:45:14.962Z,94682
2019-01-29T08:46:17.119Z,94680.6
2019-01-29T08:47:19.535Z,94680.5
2019-01-29T08:48:21.686Z,94678.8
2019-01-29T08:49:23.835Z,94679.3
2019-01-29T08:50:26.006Z,94678.5
2019-01-29T08:51:28.162Z,94675.6
2019-01-29T08:52:30.321Z,94677.1
2019-01-29T08:53:32.474Z,94676.6
2019-01-29T08:54:34.895Z,94675.8
2019-01-29T08:55:37.325Z,94674.7
2019-01-29T08:56:39.479Z,94675.8
2019-01-29T08:57:41.901Z,94675.1
2019-01-29T08:58:44.327Z,94676.8
2019-01-29T08:59:46.763Z,94678.8
2019-01-29T09:00:48.928Z,94677.1
2019-01-29T09:01:51.345Z,94676.7
2019-01-29T09:02:53.485Z,94677.4
2019-01-29T09:03:55.621Z,94676.1
2019-01-29T09:04:58.094Z,94676.5
2019-01-29T09:06:00.529Z,94679.7
2019-01-29T09:07:02.688Z,94681.4
2019-01-29T09:08:05.123Z,94679.7
2019-01-29T09:09:07.298Z,94678
2019-01-29T09:10:09.745Z,94676.7
2019-01-29T09:11:12.156Z,94679.7
2019-01-29T09:12:14.307Z,94680
2019-01-29T09:13:16.435Z,94679.8
2019-01-29T09:14:18.657Z,94681.2
2019-01-29T09:15:20.857Z,94684.1
2019-01-29T09:16:23.009Z,94677.4
2019-01-29T09:17:24.870Z,94679.8
2019-01-29T09:18:27.315Z,94674.7
2019-01-29T09:19:29.734Z,94673.9
2019-01-29T09:20:32.181Z,94670.7
2019-01-29T09:21:34.347Z,94674.6
2019-01-29T09:22:36.219Z,94671.6
2019-01-29T09:23:38.652Z,94669.8
2019-01-29T09:24:41.090Z,94664.1
2019-01-29T09:25:43.265Z,94661.7
2019-01-29T09:26:45.421Z,94661.5
2019-01-29T09:27:47.848Z,94659.4
2019-01-29T09:28:50.289Z,94660.7
2019-01-29T09:29:52.156Z,94656.1
2019-01-29T09:30:54.578Z,94658.2
2019-01-29T09:31:57.021Z,94651.4
2019-01-29T09:32:58.869Z,94651.3
2019-01-29T09:34:01.025Z,94650.9
2019-01-29T09:35:03.447Z,94645.8
2019-01-29T09:36:05.864Z,94647.9
2019-01-29T09:37:08.039Z,94650
2019-01-29T09:38:10.192Z,94648
2019-01-29T09:39:12.328Z,94646.1
2019-01-29T09:40:14.752Z,94645
2019-01-29T09:41:17.193Z,94645.7
2019-01-29T09:42:19.346Z,94644
2019-01-29T09:43:21.771Z,94643
2019-01-29T09:44:24.197Z,94649.6
2019-01-29T09:45:26.625Z,94647.1
2019-01-29T09:46:29.103Z,94647.8
2019-01-29T09:47:31.523Z,94644.4
2019-01-29T09:48:33.941Z,94647.4
2019-01-29T09:49:36.372Z,94645.7
2019-01-29T09:50:39.403Z,94646.6
2019-01-29T09:51:41.839Z,94645.8
2019-01-29T09:52:44.271Z,94645.9
2019-01-29T09:53:46.422Z,94643.9
2019-01-29T09:54:48.285Z,94642.2
2019-01-29T09:55:50.711Z,94642.8
2019-01-29T09:56:52.599Z,94644.8
2019-01-29T09:57:54.741Z,94641.9
2019-01-29T09:58:56.925Z,94644.1
2019-01-29T09:59:59.075Z,94642.3
2019-01-29T10:01:01.504Z,94640.6
2019-01-29T10:02:03.655Z,94638.3
2019-01-29T10:03:05.814Z,94640.9
2019-01-29T10:04:08.245Z,94638.2
2019-01-29T10:05:10.147Z,94642
2019-01-29T10:06:12.577Z,94638.8
2019-01-29T10:07:14.456Z,94641.4
2019-01-29T10:08:16.093Z,94639.9
2019-01-29T10:09:17.978Z,94637.9
2019-01-29T10:10:20.393Z,94633.5
2019-01-29T10:11:22.820Z,94631.6
2019-01-29T10:12:24.971Z,94630
2019-01-29T10:13:27.412Z,94629.8
2019-01-29T10:14:29.844Z,94625
2019-01-29T10:15:32.285Z,94628.6
2019-01-29T10:16:34.178Z,94624.8
2019-01-29T10:17:36.601Z,94623.2
2019-01-29T10:18:39.021Z,94624.5
2019-01-29T10:19:41.181Z,94621.1
2019-01-29T10:20:43.607Z,94622.4
2019-01-29T10:21:45.474Z,94622.9
2019-01-29T10:22:47.639Z,94621.7
2019-01-29T10:23:50.695Z,94618.9
2019-01-29T10:24:52.549Z,94618.3
2019-01-29T10:25:54.976Z,94614.7
2019-01-29T10:26:56.592Z,94617
2019-01-29T10:27:58.754Z,94617.4
2019-01-29T10:29:00.898Z,94611.5
2019-01-29T10:30:03.330Z,94606.7
2019-01-29T10:31:05.764Z,94608.3
2019-01-29T10:32:08.409Z,94609
2019-01-29T10:33:10.562Z,94609.7
2019-01-29T10:34:12.722Z,94606.8
2019-01-29T10:35:14.620Z,94606.7
2019-01-29T10:36:31.717Z,94608.2
2019-01-29T10:37:33.584Z,94601.7
2019-01-29T10:38:35.453Z,94603.1
2019-01-29T10:39:37.876Z,94605.8
2019-01-29T10:40:40.307Z,94598.5
2019-01-29T10:41:42.460Z,94599
2019-01-29T10:42:44.877Z,94598.1
2019-01-29T10:43:47.310Z,94596.1
2019-01-29T10:44:49.465Z,94595.2
2019-01-29T10:45:51.376Z,94598.1
2019-01-29T10:46:53.813Z,94592.9
2019-01-29T10:47:56.246Z,94589.2
2019-01-29T10:48:58.430Z,94589.5
2019-01-29T10:50:00.855Z,94582.9
2019-01-29T10:51:03.017Z,94582.2
2019-01-29T10:52:05.163Z,94583.8
2019-01-29T10:53:07.618Z,94578.6
2019-01-29T10:54:09.808Z,94580.5
2019-01-29T10:55:12.278Z,94577.4
2019-01-29T10:56:14.753Z,94577.6
2019-01-29T10:57:17.191Z,94578.4
2019-01-29T10:58:19.616Z,94573.8
2019-01-29T10:59:22.042Z,94572.3
2019-01-29T11:00:24.478Z,94568.5
2019-01-29T11:01:26.908Z,94563.8
2019-01-29T11:02:29.328Z,94562.6
2019-01-29T11:03:31.755Z,94563.5
2019-01-29T11:04:34.191Z,94559.6
2019-01-29T11:05:36.352Z,94559
2019-01-29T11:06:38.773Z,94557.4
2019-01-29T11:07:41.206Z,94555.1
2019-01-29T11:08:43.384Z,94556
2019-01-29T11:09:45.861Z,94560.3
2019-01-29T11:10:50.339Z,94554.8
2019-01-29T11:11:52.773Z,94550.9
2019-01-29T11:12:55.218Z,94548
2019-01-29T11:13:57.645Z,94550
2019-01-29T11:14:59.805Z,94551.8
2019-01-29T11:16:02.224Z,94546.3
2019-01-29T11:17:04.371Z,94548.7
2019-01-29T11:18:06.795Z,94544.4
2019-01-29T11:19:08.653Z,94543.7
2019-01-29T11:20:11.109Z,94542.1
2019-01-29T11:21:13.531Z,94539.6
2019-01-29T11:22:15.951Z,94538.8
2019-01-29T11:23:18.097Z,94538
2019-01-29T11:24:20.526Z,94535.9
2019-01-29T11:25:22.681Z,94534
2019-01-29T11:26:24.843Z,94528.9
2019-01-29T11:27:27.016Z,94529.8
2019-01-29T11:28:29.170Z,94528.8
2019-01-29T11:29:31.597Z,94526.3
2019-01-29T11:30:34.021Z,94523.9
2019-01-29T11:31:36.187Z,94520.3
2019-01-29T11:32:38.662Z,94519.6
2019-01-29T11:33:41.094Z,94520
2019-01-29T11:34:43.221Z,94515.3
2019-01-29T11:35:45.646Z,94516.5
2019-01-29T11:36:47.523Z,94515
2019-01-29T11:37:49.974Z,94518.5
2019-01-29T11:38:52.129Z,94516.3
2019-01-29T11:39:54.569Z,94517.1
2019-01-29T11:40:56.744Z,94515.1
2019-01-29T11:41:59.167Z,94515.6
2019-01-29T11:43:01.339Z,94510.9
2019-01-29T11:44:03.771Z,94513
2019-01-29T11:45:06.197Z,94512.1
2019-01-29T11:46:08.346Z,94512.5
2019-01-29T11:47:10.775Z,94507.8
2019-01-29T11:48:12.963Z,94507.2
2019-01-29T11:49:15.390Z,94506.5
2019-01-29T11:50:17.830Z,94501.8
2019-01-29T11:51:19.987Z,94508
2019-01-29T11:52:22.413Z,94504.2
2019-01-29T11:53:24.846Z,94503.8
2019-01-29T11:54:27.275Z,94505.8
2019-01-29T11:55:29.700Z,94504.1
2019-01-29T11:56:31.584Z,94501.2
2019-01-29T11:57:34.026Z,94495.9
2019-01-29T11:58:36.169Z,94502.9
2019-01-29T11:59:38.045Z,94494.4
2019-01-29T12:00:40.486Z,94496
2019-01-29T12:01:42.982Z,94490.4
2019-01-29T12:02:45.177Z,94494.9
2019-01-29T12:03:47.586Z,94491.3
2019-01-29T12:04:50.028Z,94492.5
2019-01-29T12:05:52.467Z,94493.1
2019-01-29T12:06:54.908Z,94492
2019-01-29T12:07:57.355Z,94488.1
2019-01-29T12:08:59.801Z,94486.1
2019-01-29T12:10:02.227Z,94486.4
2019-01-29T12:11:04.385Z,94486.1
2019-01-29T12:12:06.816Z,94476.9
2019-01-29T12:13:08.968Z,94470.7
2019-01-29T12:14:11.386Z,94475.6
2019-01-29T12:15:13.822Z,94465.3
2019-01-29T12:16:15.698Z,94463.4
2019-01-29T12:17:17.871Z,94465.7
2019-01-29T12:18:20.041Z,94467.6
2019-01-29T12:19:22.186Z,94466.4
2019-01-29T12:20:24.341Z,94459
2019-01-29T12:21:26.802Z,94464
2019-01-29T12:22:28.971Z,94459
2019-01-29T12:23:31.398Z,94458.2
2019-01-29T12:24:33.816Z,94455.9
2019-01-29T12:25:36.236Z,94452.3
2019-01-29T12:26:38.397Z,94447.9
2019-01-29T12:27:40.553Z,94454.6
2019-01-29T12:28:42.975Z,94447.7
2019-01-29T12:29:45.128Z,94449
2019-01-29T12:30:47.290Z,94443.6
2019-01-29T12:31:49.716Z,94442.8
2019-01-29T12:32:52.152Z,94440.8
2019-01-29T12:33:54.592Z,94444.7
2019-01-29T12:34:56.749Z,94440.3
2019-01-29T12:35:59.196Z,94440.7
2019-01-29T12:37:01.084Z,94434.5
2019-01-29T12:38:02.975Z,94431.4
2019-01-29T12:39:05.146Z,94432.8
2019-01-29T12:40:07.578Z,94432.8
2019-01-29T12:41:09.750Z,94427.2
2019-01-29T12:42:12.204Z,94428.1
2019-01-29T12:43:14.372Z,94423.3
2019-01-29T12:44:16.791Z,94423.2
2019-01-29T12:45:18.950Z,94424.1